sensor_id;sensor_type;location;lat;lon;timestamp;P1;durP1;ratioP1;P2;durP2;ratioP2
60885;SDS011;46736;41.654;-8.438;2023-08-08T00:00:57;0.20;;;0.20;;
60885;SDS011;46736;41.654;-8.438;2023-08-08T00:02:59;0.20;;;0.20;;
60885;SDS011;46736;41.654;-8.438;2023-08-08T00:04:59;0.20;;;0.20;;
60885;SDS011;46736;41.654;-8.438;2023-08-08T00:07:00;0.20;;;0.20;;
60885;SDS011;46736;41.654;-8.438;2023-08-08T00:09:00;0.20;;;0.20;;
60885;SDS011;46736;41.654;-8.438;2023-08-08T00:11:01;0.20;;;0.20;;
60885;SDS011;46736;41.654;-8.438;2023-08-08T00:13:01;0.20;;;0.20;;
60885;SDS011;46736;41.654;-8.438;2023-08-08T00:15:02;0.30;;;0.30;;
60885;SDS011;46736;41.654;-8.438;2023-08-08T00:17:03;0.20;;;0.20;;
60885;SDS011;46736;41.654;-8.438;2023-08-08T00:19:03;0.30;;;0.30;;
60885;SDS011;46736;41.654;-8.438;2023-08-08T00:21:04;0.20;;;0.20;;
60885;SDS011;46736;41.654;-8.438;2023-08-08T00:23:04;0.20;;;0.20;;
60885;SDS011;46736;41.654;-8.438;2023-08-08T00:25:05;0.20;;;0.20;;
60885;SDS011;46736;41.654;-8.438;2023-08-08T00:27:05;0.20;;;0.20;;
60885;SDS011;46736;41.654;-8.438;2023-08-08T00:29:06;0.20;;;0.20;;
60885;SDS011;46736;41.654;-8.438;2023-08-08T00:31:08;0.20;;;0.20;;
60885;SDS011;46736;41.654;-8.438;2023-08-08T00:33:08;0.20;;;0.20;;
60885;SDS011;46736;41.654;-8.438;2023-08-08T00:35:09;0.22;;;0.22;;
60885;SDS011;46736;41.654;-8.438;2023-08-08T00:37:10;0.30;;;0.30;;
60885;SDS011;46736;41.654;-8.438;2023-08-08T00:39:10;0.20;;;0.20;;
60885;SDS011;46736;41.654;-8.438;2023-08-08T00:41:11;0.20;;;0.20;;
60885;SDS011;46736;41.654;-8.438;2023-08-08T00:43:11;0.20;;;0.20;;
60885;SDS011;46736;41.654;-8.438;2023-08-08T00:45:15;0.20;;;0.20;;
60885;SDS011;46736;41.654;-8.438;2023-08-08T00:47:16;0.20;;;0.20;;
60885;SDS011;46736;41.654;-8.438;2023-08-08T00:49:17;0.20;;;0.20;;
60885;SDS011;46736;41.654;-8.438;2023-08-08T00:51:18;0.20;;;0.20;;
60885;SDS011;46736;41.654;-8.438;2023-08-08T00:53:18;0.20;;;0.20;;
60885;SDS011;46736;41.654;-8.438;2023-08-08T00:55:20;0.30;;;0.30;;
60885;SDS011;46736;41.654;-8.438;2023-08-08T00:57:21;0.20;;;0.20;;
60885;SDS011;46736;41.654;-8.438;2023-08-08T00:59:22;0.20;;;0.20;;
60885;SDS011;46736;41.654;-8.438;2023-08-08T01:01:23;0.25;;;0.25;;
60885;SDS011;46736;41.654;-8.438;2023-08-08T01:03:23;0.20;;;0.20;;
60885;SDS011;46736;41.654;-8.438;2023-08-08T01:05:24;0.20;;;0.20;;
60885;SDS011;46736;41.654;-8.438;2023-08-08T01:07:39;0.20;;;0.20;;
60885;SDS011;46736;41.654;-8.438;2023-08-08T01:09:43;0.20;;;0.20;;
60885;SDS011;46736;41.654;-8.438;2023-08-08T01:11:45;0.20;;;0.20;;
60885;SDS011;46736;41.654;-8.438;2023-08-08T01:13:48;0.20;;;0.20;;
60885;SDS011;46736;41.654;-8.438;2023-08-08T01:15:49;0.20;;;0.20;;
60885;SDS011;46736;41.654;-8.438;2023-08-08T01:17:50;0.20;;;0.20;;
60885;SDS011;46736;41.654;-8.438;2023-08-08T01:19:51;0.20;;;0.20;;
60885;SDS011;46736;41.654;-8.438;2023-08-08T01:21:52;0.20;;;0.20;;
60885;SDS011;46736;41.654;-8.438;2023-08-08T01:23:56;0.20;;;0.20;;
60885;SDS011;46736;41.654;-8.438;2023-08-08T01:25:57;0.20;;;0.20;;
60885;SDS011;46736;41.654;-8.438;2023-08-08T01:28:00;0.20;;;0.20;;
60885;SDS011;46736;41.654;-8.438;2023-08-08T01:30:00;0.20;;;0.20;;
60885;SDS011;46736;41.654;-8.438;2023-08-08T01:32:01;0.20;;;0.20;;
60885;SDS011;46736;41.654;-8.438;2023-08-08T01:34:02;0.20;;;0.20;;
60885;SDS011;46736;41.654;-8.438;2023-08-08T01:36:04;0.20;;;0.20;;
60885;SDS011;46736;41.654;-8.438;2023-08-08T01:38:09;0.30;;;0.30;;
60885;SDS011;46736;41.654;-8.438;2023-08-08T01:40:13;0.20;;;0.20;;
60885;SDS011;46736;41.654;-8.438;2023-08-08T01:42:16;0.20;;;0.20;;
60885;SDS011;46736;41.654;-8.438;2023-08-08T01:44:18;0.20;;;0.20;;
60885;SDS011;46736;41.654;-8.438;2023-08-08T01:46:19;0.20;;;0.20;;
60885;SDS011;46736;41.654;-8.438;2023-08-08T01:48:19;0.30;;;0.30;;
60885;SDS011;46736;41.654;-8.438;2023-08-08T01:50:20;0.20;;;0.20;;
60885;SDS011;46736;41.654;-8.438;2023-08-08T01:52:21;0.20;;;0.20;;
60885;SDS011;46736;41.654;-8.438;2023-08-08T01:54:23;0.20;;;0.20;;
60885;SDS011;46736;41.654;-8.438;2023-08-08T01:56:24;0.20;;;0.20;;
60885;SDS011;46736;41.654;-8.438;2023-08-08T01:58:25;0.20;;;0.20;;
60885;SDS011;46736;41.654;-8.438;2023-08-08T02:00:25;0.20;;;0.20;;
60885;SDS011;46736;41.654;-8.438;2023-08-08T02:02:27;0.20;;;0.20;;
60885;SDS011;46736;41.654;-8.438;2023-08-08T02:04:28;0.30;;;0.30;;
60885;SDS011;46736;41.654;-8.438;2023-08-08T02:06:29;0.20;;;0.20;;
60885;SDS011;46736;41.654;-8.438;2023-08-08T02:08:30;0.20;;;0.20;;
60885;SDS011;46736;41.654;-8.438;2023-08-08T02:10:30;0.20;;;0.20;;
60885;SDS011;46736;41.654;-8.438;2023-08-08T02:12:31;0.20;;;0.20;;
60885;SDS011;46736;41.654;-8.438;2023-08-08T02:14:32;0.20;;;0.20;;
60885;SDS011;46736;41.654;-8.438;2023-08-08T02:16:33;0.20;;;0.20;;
60885;SDS011;46736;41.654;-8.438;2023-08-08T02:18:34;0.20;;;0.20;;
60885;SDS011;46736;41.654;-8.438;2023-08-08T02:20:40;0.20;;;0.20;;
60885;SDS011;46736;41.654;-8.438;2023-08-08T02:22:41;0.20;;;0.20;;
60885;SDS011;46736;41.654;-8.438;2023-08-08T02:24:41;0.20;;;0.20;;
60885;SDS011;46736;41.654;-8.438;2023-08-08T02:26:42;0.30;;;0.30;;
60885;SDS011;46736;41.654;-8.438;2023-08-08T02:28:43;0.20;;;0.20;;
60885;SDS011;46736;41.654;-8.438;2023-08-08T02:30:44;0.20;;;0.20;;
60885;SDS011;46736;41.654;-8.438;2023-08-08T02:32:44;0.20;;;0.20;;
60885;SDS011;46736;41.654;-8.438;2023-08-08T02:34:45;0.20;;;0.20;;
60885;SDS011;46736;41.654;-8.438;2023-08-08T02:36:47;0.20;;;0.20;;
60885;SDS011;46736;41.654;-8.438;2023-08-08T02:38:48;0.20;;;0.20;;
60885;SDS011;46736;41.654;-8.438;2023-08-08T02:40:50;0.20;;;0.20;;
60885;SDS011;46736;41.654;-8.438;2023-08-08T02:42:51;0.30;;;0.30;;
60885;SDS011;46736;41.654;-8.438;2023-08-08T02:44:51;0.28;;;0.28;;
60885;SDS011;46736;41.654;-8.438;2023-08-08T02:46:52;0.20;;;0.20;;
60885;SDS011;46736;41.654;-8.438;2023-08-08T02:48:52;0.20;;;0.20;;
60885;SDS011;46736;41.654;-8.438;2023-08-08T02:50:53;0.20;;;0.20;;
60885;SDS011;46736;41.654;-8.438;2023-08-08T02:52:56;0.20;;;0.20;;
60885;SDS011;46736;41.654;-8.438;2023-08-08T02:55:00;0.20;;;0.20;;
60885;SDS011;46736;41.654;-8.438;2023-08-08T02:57:03;0.20;;;0.20;;
60885;SDS011;46736;41.654;-8.438;2023-08-08T02:59:04;0.25;;;0.25;;
60885;SDS011;46736;41.654;-8.438;2023-08-08T03:01:06;0.30;;;0.30;;
60885;SDS011;46736;41.654;-8.438;2023-08-08T03:03:06;0.20;;;0.20;;
60885;SDS011;46736;41.654;-8.438;2023-08-08T03:05:07;0.30;;;0.30;;
60885;SDS011;46736;41.654;-8.438;2023-08-08T03:07:08;0.20;;;0.20;;
60885;SDS011;46736;41.654;-8.438;2023-08-08T03:09:10;0.20;;;0.20;;
60885;SDS011;46736;41.654;-8.438;2023-08-08T03:11:12;0.30;;;0.30;;
60885;SDS011;46736;41.654;-8.438;2023-08-08T03:13:13;0.28;;;0.28;;
60885;SDS011;46736;41.654;-8.438;2023-08-08T03:15:14;0.20;;;0.20;;
60885;SDS011;46736;41.654;-8.438;2023-08-08T03:17:14;0.20;;;0.20;;
60885;SDS011;46736;41.654;-8.438;2023-08-08T03:19:15;0.20;;;0.20;;
60885;SDS011;46736;41.654;-8.438;2023-08-08T03:21:16;0.20;;;0.20;;
60885;SDS011;46736;41.654;-8.438;2023-08-08T03:23:17;0.20;;;0.20;;
60885;SDS011;46736;41.654;-8.438;2023-08-08T03:25:17;0.20;;;0.20;;
60885;SDS011;46736;41.654;-8.438;2023-08-08T03:27:18;0.20;;;0.20;;
60885;SDS011;46736;41.654;-8.438;2023-08-08T03:29:23;0.30;;;0.30;;
60885;SDS011;46736;41.654;-8.438;2023-08-08T03:31:23;0.30;;;0.30;;
60885;SDS011;46736;41.654;-8.438;2023-08-08T03:33:26;0.30;;;0.30;;
60885;SDS011;46736;41.654;-8.438;2023-08-08T03:35:27;0.28;;;0.28;;
60885;SDS011;46736;41.654;-8.438;2023-08-08T03:37:27;0.30;;;0.30;;
60885;SDS011;46736;41.654;-8.438;2023-08-08T03:39:28;0.20;;;0.20;;
60885;SDS011;46736;41.654;-8.438;2023-08-08T03:41:28;0.30;;;0.30;;
60885;SDS011;46736;41.654;-8.438;2023-08-08T03:43:29;0.30;;;0.30;;
60885;SDS011;46736;41.654;-8.438;2023-08-08T03:45:30;0.30;;;0.30;;
60885;SDS011;46736;41.654;-8.438;2023-08-08T03:47:31;0.30;;;0.30;;
60885;SDS011;46736;41.654;-8.438;2023-08-08T03:49:31;0.20;;;0.20;;
60885;SDS011;46736;41.654;-8.438;2023-08-08T03:51:33;0.25;;;0.25;;
60885;SDS011;46736;41.654;-8.438;2023-08-08T03:53:35;0.30;;;0.30;;
60885;SDS011;46736;41.654;-8.438;2023-08-08T03:55:35;0.20;;;0.20;;
60885;SDS011;46736;41.654;-8.438;2023-08-08T03:57:38;0.30;;;0.30;;
60885;SDS011;46736;41.654;-8.438;2023-08-08T03:59:38;0.30;;;0.30;;
60885;SDS011;46736;41.654;-8.438;2023-08-08T04:01:39;0.20;;;0.20;;
60885;SDS011;46736;41.654;-8.438;2023-08-08T04:03:40;0.20;;;0.20;;
60885;SDS011;46736;41.654;-8.438;2023-08-08T04:05:41;0.20;;;0.20;;
60885;SDS011;46736;41.654;-8.438;2023-08-08T04:07:41;0.20;;;0.20;;
60885;SDS011;46736;41.654;-8.438;2023-08-08T04:09:42;0.20;;;0.20;;
60885;SDS011;46736;41.654;-8.438;2023-08-08T04:11:43;0.20;;;0.20;;
60885;SDS011;46736;41.654;-8.438;2023-08-08T04:13:43;0.20;;;0.20;;
60885;SDS011;46736;41.654;-8.438;2023-08-08T04:15:44;0.30;;;0.30;;
60885;SDS011;46736;41.654;-8.438;2023-08-08T04:17:44;0.30;;;0.30;;
60885;SDS011;46736;41.654;-8.438;2023-08-08T04:19:45;0.30;;;0.30;;
60885;SDS011;46736;41.654;-8.438;2023-08-08T04:21:45;0.30;;;0.30;;
60885;SDS011;46736;41.654;-8.438;2023-08-08T04:23:46;0.20;;;0.20;;
60885;SDS011;46736;41.654;-8.438;2023-08-08T04:25:46;0.30;;;0.30;;
60885;SDS011;46736;41.654;-8.438;2023-08-08T04:27:47;0.30;;;0.30;;
60885;SDS011;46736;41.654;-8.438;2023-08-08T04:29:47;0.20;;;0.20;;
60885;SDS011;46736;41.654;-8.438;2023-08-08T04:31:49;0.20;;;0.20;;
60885;SDS011;46736;41.654;-8.438;2023-08-08T04:33:49;0.20;;;0.20;;
60885;SDS011;46736;41.654;-8.438;2023-08-08T04:35:50;0.20;;;0.20;;
60885;SDS011;46736;41.654;-8.438;2023-08-08T04:37:50;0.20;;;0.20;;
60885;SDS011;46736;41.654;-8.438;2023-08-08T04:39:51;0.20;;;0.20;;
60885;SDS011;46736;41.654;-8.438;2023-08-08T04:41:52;0.20;;;0.20;;
60885;SDS011;46736;41.654;-8.438;2023-08-08T04:43:52;0.20;;;0.20;;
60885;SDS011;46736;41.654;-8.438;2023-08-08T04:45:53;0.30;;;0.30;;
60885;SDS011;46736;41.654;-8.438;2023-08-08T04:47:53;0.20;;;0.20;;
60885;SDS011;46736;41.654;-8.438;2023-08-08T04:49:54;0.20;;;0.20;;
60885;SDS011;46736;41.654;-8.438;2023-08-08T04:51:54;0.30;;;0.30;;
60885;SDS011;46736;41.654;-8.438;2023-08-08T04:53:55;0.10;;;0.10;;
60885;SDS011;46736;41.654;-8.438;2023-08-08T04:55:55;0.30;;;0.30;;
60885;SDS011;46736;41.654;-8.438;2023-08-08T04:57:56;0.30;;;0.30;;
60885;SDS011;46736;41.654;-8.438;2023-08-08T04:59:56;0.28;;;0.28;;
60885;SDS011;46736;41.654;-8.438;2023-08-08T05:01:57;0.20;;;0.20;;
60885;SDS011;46736;41.654;-8.438;2023-08-08T05:03:57;0.30;;;0.30;;
60885;SDS011;46736;41.654;-8.438;2023-08-08T05:05:58;0.30;;;0.30;;
60885;SDS011;46736;41.654;-8.438;2023-08-08T05:07:59;0.20;;;0.20;;
60885;SDS011;46736;41.654;-8.438;2023-08-08T05:10:00;0.30;;;0.30;;
60885;SDS011;46736;41.654;-8.438;2023-08-08T05:12:01;0.30;;;0.30;;
60885;SDS011;46736;41.654;-8.438;2023-08-08T05:14:01;0.20;;;0.20;;
60885;SDS011;46736;41.654;-8.438;2023-08-08T05:16:02;0.20;;;0.20;;
60885;SDS011;46736;41.654;-8.438;2023-08-08T05:18:02;0.30;;;0.30;;
60885;SDS011;46736;41.654;-8.438;2023-08-08T05:20:04;0.20;;;0.20;;
60885;SDS011;46736;41.654;-8.438;2023-08-08T05:22:05;0.30;;;0.30;;
60885;SDS011;46736;41.654;-8.438;2023-08-08T05:24:06;0.20;;;0.20;;
60885;SDS011;46736;41.654;-8.438;2023-08-08T05:26:06;0.20;;;0.20;;
60885;SDS011;46736;41.654;-8.438;2023-08-08T05:28:07;0.20;;;0.20;;
60885;SDS011;46736;41.654;-8.438;2023-08-08T05:30:07;0.20;;;0.20;;
60885;SDS011;46736;41.654;-8.438;2023-08-08T05:32:08;0.20;;;0.20;;
60885;SDS011;46736;41.654;-8.438;2023-08-08T05:34:09;0.20;;;0.20;;
60885;SDS011;46736;41.654;-8.438;2023-08-08T05:36:09;0.20;;;0.20;;
60885;SDS011;46736;41.654;-8.438;2023-08-08T05:38:10;0.30;;;0.30;;
60885;SDS011;46736;41.654;-8.438;2023-08-08T05:40:10;0.25;;;0.25;;
60885;SDS011;46736;41.654;-8.438;2023-08-08T05:42:11;0.20;;;0.20;;
60885;SDS011;46736;41.654;-8.438;2023-08-08T05:44:11;0.30;;;0.30;;
60885;SDS011;46736;41.654;-8.438;2023-08-08T05:46:12;0.30;;;0.30;;
60885;SDS011;46736;41.654;-8.438;2023-08-08T05:48:13;0.20;;;0.20;;
60885;SDS011;46736;41.654;-8.438;2023-08-08T05:50:13;0.30;;;0.30;;
60885;SDS011;46736;41.654;-8.438;2023-08-08T05:52:14;0.30;;;0.30;;
60885;SDS011;46736;41.654;-8.438;2023-08-08T05:54:14;0.30;;;0.30;;
60885;SDS011;46736;41.654;-8.438;2023-08-08T05:56:15;0.20;;;0.20;;
60885;SDS011;46736;41.654;-8.438;2023-08-08T05:58:15;0.30;;;0.30;;
60885;SDS011;46736;41.654;-8.438;2023-08-08T06:00:16;0.30;;;0.30;;
60885;SDS011;46736;41.654;-8.438;2023-08-08T06:02:16;0.20;;;0.20;;
60885;SDS011;46736;41.654;-8.438;2023-08-08T06:04:17;0.20;;;0.20;;
60885;SDS011;46736;41.654;-8.438;2023-08-08T06:06:19;0.30;;;0.30;;
60885;SDS011;46736;41.654;-8.438;2023-08-08T06:08:19;0.30;;;0.30;;
60885;SDS011;46736;41.654;-8.438;2023-08-08T06:10:20;0.30;;;0.30;;
60885;SDS011;46736;41.654;-8.438;2023-08-08T06:12:20;0.20;;;0.20;;
60885;SDS011;46736;41.654;-8.438;2023-08-08T06:14:21;0.20;;;0.20;;
60885;SDS011;46736;41.654;-8.438;2023-08-08T06:16:21;0.20;;;0.20;;
60885;SDS011;46736;41.654;-8.438;2023-08-08T06:18:22;0.22;;;0.22;;
60885;SDS011;46736;41.654;-8.438;2023-08-08T06:20:23;0.30;;;0.30;;
60885;SDS011;46736;41.654;-8.438;2023-08-08T06:22:23;0.20;;;0.20;;
60885;SDS011;46736;41.654;-8.438;2023-08-08T06:24:24;0.22;;;0.22;;
60885;SDS011;46736;41.654;-8.438;2023-08-08T06:26:25;0.30;;;0.30;;
60885;SDS011;46736;41.654;-8.438;2023-08-08T06:28:25;0.30;;;0.30;;
60885;SDS011;46736;41.654;-8.438;2023-08-08T06:30:26;0.30;;;0.30;;
60885;SDS011;46736;41.654;-8.438;2023-08-08T06:32:26;0.20;;;0.20;;
60885;SDS011;46736;41.654;-8.438;2023-08-08T06:34:27;0.30;;;0.30;;
60885;SDS011;46736;41.654;-8.438;2023-08-08T06:36:27;0.30;;;0.30;;
60885;SDS011;46736;41.654;-8.438;2023-08-08T06:38:28;0.20;;;0.20;;
60885;SDS011;46736;41.654;-8.438;2023-08-08T06:40:28;0.30;;;0.30;;
60885;SDS011;46736;41.654;-8.438;2023-08-08T06:42:29;0.30;;;0.30;;
60885;SDS011;46736;41.654;-8.438;2023-08-08T06:44:40;0.30;;;0.30;;
60885;SDS011;46736;41.654;-8.438;2023-08-08T06:46:41;0.30;;;0.30;;
60885;SDS011;46736;41.654;-8.438;2023-08-08T06:48:42;0.30;;;0.30;;
60885;SDS011;46736;41.654;-8.438;2023-08-08T06:50:43;0.30;;;0.30;;
60885;SDS011;46736;41.654;-8.438;2023-08-08T06:52:44;0.30;;;0.30;;
60885;SDS011;46736;41.654;-8.438;2023-08-08T06:54:44;0.20;;;0.20;;
60885;SDS011;46736;41.654;-8.438;2023-08-08T06:56:45;0.30;;;0.30;;
60885;SDS011;46736;41.654;-8.438;2023-08-08T06:58:45;0.20;;;0.20;;
60885;SDS011;46736;41.654;-8.438;2023-08-08T07:00:46;0.20;;;0.20;;
60885;SDS011;46736;41.654;-8.438;2023-08-08T07:02:46;0.20;;;0.20;;
60885;SDS011;46736;41.654;-8.438;2023-08-08T07:04:47;0.20;;;0.20;;
60885;SDS011;46736;41.654;-8.438;2023-08-08T07:06:47;0.20;;;0.20;;
60885;SDS011;46736;41.654;-8.438;2023-08-08T07:08:48;0.20;;;0.20;;
60885;SDS011;46736;41.654;-8.438;2023-08-08T07:10:49;0.20;;;0.20;;
60885;SDS011;46736;41.654;-8.438;2023-08-08T07:12:49;0.20;;;0.20;;
60885;SDS011;46736;41.654;-8.438;2023-08-08T07:14:50;0.30;;;0.30;;
60885;SDS011;46736;41.654;-8.438;2023-08-08T07:16:50;0.20;;;0.20;;
60885;SDS011;46736;41.654;-8.438;2023-08-08T07:18:51;0.20;;;0.20;;
60885;SDS011;46736;41.654;-8.438;2023-08-08T07:20:51;0.30;;;0.30;;
60885;SDS011;46736;41.654;-8.438;2023-08-08T07:22:52;0.20;;;0.20;;
60885;SDS011;46736;41.654;-8.438;2023-08-08T07:24:53;0.20;;;0.20;;
60885;SDS011;46736;41.654;-8.438;2023-08-08T07:26:53;0.20;;;0.20;;
60885;SDS011;46736;41.654;-8.438;2023-08-08T07:28:54;0.20;;;0.20;;
60885;SDS011;46736;41.654;-8.438;2023-08-08T07:30:54;0.20;;;0.20;;
60885;SDS011;46736;41.654;-8.438;2023-08-08T07:32:55;0.20;;;0.20;;
60885;SDS011;46736;41.654;-8.438;2023-08-08T07:34:55;0.20;;;0.20;;
60885;SDS011;46736;41.654;-8.438;2023-08-08T07:36:56;0.20;;;0.20;;
60885;SDS011;46736;41.654;-8.438;2023-08-08T07:38:56;0.20;;;0.20;;
60885;SDS011;46736;41.654;-8.438;2023-08-08T07:40:59;0.20;;;0.20;;
60885;SDS011;46736;41.654;-8.438;2023-08-08T07:43:00;0.20;;;0.20;;
60885;SDS011;46736;41.654;-8.438;2023-08-08T07:45:00;0.20;;;0.20;;
60885;SDS011;46736;41.654;-8.438;2023-08-08T07:47:01;0.20;;;0.20;;
60885;SDS011;46736;41.654;-8.438;2023-08-08T07:49:01;0.20;;;0.20;;
60885;SDS011;46736;41.654;-8.438;2023-08-08T07:51:03;0.20;;;0.20;;
60885;SDS011;46736;41.654;-8.438;2023-08-08T07:53:04;0.20;;;0.20;;
60885;SDS011;46736;41.654;-8.438;2023-08-08T07:55:04;0.20;;;0.20;;
60885;SDS011;46736;41.654;-8.438;2023-08-08T07:57:05;0.20;;;0.20;;
60885;SDS011;46736;41.654;-8.438;2023-08-08T07:59:06;0.20;;;0.20;;
60885;SDS011;46736;41.654;-8.438;2023-08-08T08:01:07;0.20;;;0.20;;
60885;SDS011;46736;41.654;-8.438;2023-08-08T08:03:07;0.20;;;0.20;;
60885;SDS011;46736;41.654;-8.438;2023-08-08T08:05:08;0.10;;;0.10;;
60885;SDS011;46736;41.654;-8.438;2023-08-08T08:07:12;0.10;;;0.10;;
60885;SDS011;46736;41.654;-8.438;2023-08-08T08:09:13;0.38;;;0.20;;
60885;SDS011;46736;41.654;-8.438;2023-08-08T08:11:13;0.10;;;0.10;;
60885;SDS011;46736;41.654;-8.438;2023-08-08T08:13:16;0.10;;;0.10;;
60885;SDS011;46736;41.654;-8.438;2023-08-08T08:15:16;0.10;;;0.10;;
60885;SDS011;46736;41.654;-8.438;2023-08-08T08:17:17;0.00;;;0.00;;
60885;SDS011;46736;41.654;-8.438;2023-08-08T08:19:18;0.00;;;0.00;;
60885;SDS011;46736;41.654;-8.438;2023-08-08T08:21:19;0.00;;;0.00;;
60885;SDS011;46736;41.654;-8.438;2023-08-08T08:23:19;0.00;;;0.00;;
60885;SDS011;46736;41.654;-8.438;2023-08-08T08:25:20;0.00;;;0.00;;
60885;SDS011;46736;41.654;-8.438;2023-08-08T08:27:20;0.00;;;0.00;;
60885;SDS011;46736;41.654;-8.438;2023-08-08T08:29:21;0.00;;;0.00;;
60885;SDS011;46736;41.654;-8.438;2023-08-08T08:31:21;0.00;;;0.00;;
60885;SDS011;46736;41.654;-8.438;2023-08-08T08:33:22;0.00;;;0.00;;
60885;SDS011;46736;41.654;-8.438;2023-08-08T08:35:22;0.00;;;0.00;;
60885;SDS011;46736;41.654;-8.438;2023-08-08T08:37:23;0.00;;;0.00;;
60885;SDS011;46736;41.654;-8.438;2023-08-08T08:39:23;0.00;;;0.00;;
60885;SDS011;46736;41.654;-8.438;2023-08-08T08:41:25;0.00;;;0.00;;
60885;SDS011;46736;41.654;-8.438;2023-08-08T08:43:26;0.00;;;0.00;;
60885;SDS011;46736;41.654;-8.438;2023-08-08T08:45:27;0.00;;;0.00;;
60885;SDS011;46736;41.654;-8.438;2023-08-08T08:47:29;0.00;;;0.00;;
60885;SDS011;46736;41.654;-8.438;2023-08-08T08:49:31;0.00;;;0.00;;
60885;SDS011;46736;41.654;-8.438;2023-08-08T08:51:31;0.00;;;0.00;;
60885;SDS011;46736;41.654;-8.438;2023-08-08T08:53:32;0.00;;;0.00;;
60885;SDS011;46736;41.654;-8.438;2023-08-08T08:55:39;0.00;;;0.00;;
60885;SDS011;46736;41.654;-8.438;2023-08-08T08:57:40;0.00;;;0.00;;
60885;SDS011;46736;41.654;-8.438;2023-08-08T08:59:40;0.00;;;0.00;;
60885;SDS011;46736;41.654;-8.438;2023-08-08T09:01:41;0.00;;;0.00;;
60885;SDS011;46736;41.654;-8.438;2023-08-08T09:03:42;0.00;;;0.00;;
60885;SDS011;46736;41.654;-8.438;2023-08-08T09:05:43;0.00;;;0.00;;
60885;SDS011;46736;41.654;-8.438;2023-08-08T09:07:45;0.00;;;0.00;;
60885;SDS011;46736;41.654;-8.438;2023-08-08T09:09:45;0.00;;;0.00;;
60885;SDS011;46736;41.654;-8.438;2023-08-08T09:11:47;0.00;;;0.00;;
60885;SDS011;46736;41.654;-8.438;2023-08-08T09:13:48;0.00;;;0.00;;
60885;SDS011;46736;41.654;-8.438;2023-08-08T09:15:48;0.00;;;0.00;;
60885;SDS011;46736;41.654;-8.438;2023-08-08T09:17:50;0.00;;;0.00;;
60885;SDS011;46736;41.654;-8.438;2023-08-08T09:19:52;0.00;;;0.00;;
60885;SDS011;46736;41.654;-8.438;2023-08-08T09:21:53;0.00;;;0.00;;
60885;SDS011;46736;41.654;-8.438;2023-08-08T09:23:53;0.00;;;0.00;;
60885;SDS011;46736;41.654;-8.438;2023-08-08T09:25:54;0.00;;;0.00;;
60885;SDS011;46736;41.654;-8.438;2023-08-08T09:27:54;0.00;;;0.00;;
60885;SDS011;46736;41.654;-8.438;2023-08-08T09:29:55;0.00;;;0.00;;
60885;SDS011;46736;41.654;-8.438;2023-08-08T09:31:56;0.00;;;0.00;;
60885;SDS011;46736;41.654;-8.438;2023-08-08T09:33:57;0.00;;;0.00;;
60885;SDS011;46736;41.654;-8.438;2023-08-08T09:35:58;0.00;;;0.00;;
60885;SDS011;46736;41.654;-8.438;2023-08-08T09:37:59;0.00;;;0.00;;
60885;SDS011;46736;41.654;-8.438;2023-08-08T09:40:00;0.00;;;0.00;;
60885;SDS011;46736;41.654;-8.438;2023-08-08T09:42:01;0.00;;;0.00;;
60885;SDS011;46736;41.654;-8.438;2023-08-08T09:44:02;0.00;;;0.00;;
60885;SDS011;46736;41.654;-8.438;2023-08-08T09:46:02;0.00;;;0.00;;
60885;SDS011;46736;41.654;-8.438;2023-08-08T09:48:03;0.00;;;0.00;;
60885;SDS011;46736;41.654;-8.438;2023-08-08T09:50:04;0.00;;;0.00;;
60885;SDS011;46736;41.654;-8.438;2023-08-08T09:52:05;0.00;;;0.00;;
60885;SDS011;46736;41.654;-8.438;2023-08-08T09:54:05;0.00;;;0.00;;
60885;SDS011;46736;41.654;-8.438;2023-08-08T09:56:06;0.00;;;0.00;;
60885;SDS011;46736;41.654;-8.438;2023-08-08T09:58:07;0.00;;;0.00;;
60885;SDS011;46736;41.654;-8.438;2023-08-08T10:00:09;0.00;;;0.00;;
60885;SDS011;46736;41.654;-8.438;2023-08-08T10:02:15;0.00;;;0.00;;
60885;SDS011;46736;41.654;-8.438;2023-08-08T10:04:16;0.00;;;0.00;;
60885;SDS011;46736;41.654;-8.438;2023-08-08T10:06:18;0.00;;;0.00;;
60885;SDS011;46736;41.654;-8.438;2023-08-08T10:08:18;0.00;;;0.00;;
60885;SDS011;46736;41.654;-8.438;2023-08-08T10:10:19;0.00;;;0.00;;
60885;SDS011;46736;41.654;-8.438;2023-08-08T10:12:21;0.00;;;0.00;;
60885;SDS011;46736;41.654;-8.438;2023-08-08T10:14:28;0.00;;;0.00;;
60885;SDS011;46736;41.654;-8.438;2023-08-08T10:16:31;0.00;;;0.00;;
60885;SDS011;46736;41.654;-8.438;2023-08-08T10:20:35;0.00;;;0.00;;
60885;SDS011;46736;41.654;-8.438;2023-08-08T10:22:36;0.00;;;0.00;;
60885;SDS011;46736;41.654;-8.438;2023-08-08T10:24:38;0.00;;;0.00;;
60885;SDS011;46736;41.654;-8.438;2023-08-08T10:28:57;0.00;;;0.00;;
60885;SDS011;46736;41.654;-8.438;2023-08-08T10:30:58;0.00;;;0.00;;
60885;SDS011;46736;41.654;-8.438;2023-08-08T10:32:59;0.00;;;0.00;;
60885;SDS011;46736;41.654;-8.438;2023-08-08T10:35:02;0.00;;;0.00;;
60885;SDS011;46736;41.654;-8.438;2023-08-08T10:37:04;0.00;;;0.00;;
60885;SDS011;46736;41.654;-8.438;2023-08-08T10:39:04;0.00;;;0.00;;
60885;SDS011;46736;41.654;-8.438;2023-08-08T10:41:11;0.00;;;0.00;;
60885;SDS011;46736;41.654;-8.438;2023-08-08T10:43:12;0.00;;;0.00;;
60885;SDS011;46736;41.654;-8.438;2023-08-08T10:45:14;0.00;;;0.00;;
60885;SDS011;46736;41.654;-8.438;2023-08-08T10:47:15;0.00;;;0.00;;
60885;SDS011;46736;41.654;-8.438;2023-08-08T10:49:16;0.00;;;0.00;;
60885;SDS011;46736;41.654;-8.438;2023-08-08T10:51:17;0.00;;;0.00;;
60885;SDS011;46736;41.654;-8.438;2023-08-08T10:53:18;0.00;;;0.00;;
60885;SDS011;46736;41.654;-8.438;2023-08-08T10:55:23;0.00;;;0.00;;
60885;SDS011;46736;41.654;-8.438;2023-08-08T10:57:26;0.00;;;0.00;;
60885;SDS011;46736;41.654;-8.438;2023-08-08T10:59:35;0.00;;;0.00;;
60885;SDS011;46736;41.654;-8.438;2023-08-08T11:01:36;0.00;;;0.00;;
60885;SDS011;46736;41.654;-8.438;2023-08-08T11:03:38;0.00;;;0.00;;
60885;SDS011;46736;41.654;-8.438;2023-08-08T11:05:39;0.03;;;0.03;;
60885;SDS011;46736;41.654;-8.438;2023-08-08T11:07:40;0.00;;;0.00;;
60885;SDS011;46736;41.654;-8.438;2023-08-08T11:09:42;0.00;;;0.00;;
60885;SDS011;46736;41.654;-8.438;2023-08-08T11:11:43;0.00;;;0.00;;
60885;SDS011;46736;41.654;-8.438;2023-08-08T11:13:44;0.10;;;0.10;;
60885;SDS011;46736;41.654;-8.438;2023-08-08T11:15:45;0.00;;;0.00;;
60885;SDS011;46736;41.654;-8.438;2023-08-08T11:17:45;0.05;;;0.05;;
60885;SDS011;46736;41.654;-8.438;2023-08-08T11:19:46;0.00;;;0.00;;
60885;SDS011;46736;41.654;-8.438;2023-08-08T11:21:48;0.00;;;0.00;;
60885;SDS011;46736;41.654;-8.438;2023-08-08T11:23:49;0.00;;;0.00;;
60885;SDS011;46736;41.654;-8.438;2023-08-08T11:25:49;0.00;;;0.00;;
60885;SDS011;46736;41.654;-8.438;2023-08-08T11:27:51;0.00;;;0.00;;
60885;SDS011;46736;41.654;-8.438;2023-08-08T11:29:52;0.00;;;0.00;;
60885;SDS011;46736;41.654;-8.438;2023-08-08T11:31:52;0.00;;;0.00;;
60885;SDS011;46736;41.654;-8.438;2023-08-08T11:33:54;0.00;;;0.00;;
60885;SDS011;46736;41.654;-8.438;2023-08-08T11:35:56;0.00;;;0.00;;
60885;SDS011;46736;41.654;-8.438;2023-08-08T11:37:57;0.03;;;0.03;;
60885;SDS011;46736;41.654;-8.438;2023-08-08T11:39:58;0.00;;;0.00;;
60885;SDS011;46736;41.654;-8.438;2023-08-08T11:41:59;0.05;;;0.05;;
60885;SDS011;46736;41.654;-8.438;2023-08-08T11:44:00;0.00;;;0.00;;
60885;SDS011;46736;41.654;-8.438;2023-08-08T11:46:00;0.00;;;0.00;;
60885;SDS011;46736;41.654;-8.438;2023-08-08T11:48:01;0.00;;;0.00;;
60885;SDS011;46736;41.654;-8.438;2023-08-08T11:50:02;0.00;;;0.00;;
60885;SDS011;46736;41.654;-8.438;2023-08-08T11:52:03;0.00;;;0.00;;
60885;SDS011;46736;41.654;-8.438;2023-08-08T11:56:07;0.00;;;0.00;;
60885;SDS011;46736;41.654;-8.438;2023-08-08T11:58:11;0.00;;;0.00;;
60885;SDS011;46736;41.654;-8.438;2023-08-08T12:00:12;0.00;;;0.00;;
60885;SDS011;46736;41.654;-8.438;2023-08-08T12:02:14;0.00;;;0.00;;
60885;SDS011;46736;41.654;-8.438;2023-08-08T12:04:14;0.00;;;0.00;;